createdAt,value
2022-12-18T00:03:37.666Z,1019.17
2022-12-18T00:08:37.020Z,1019.14
2022-12-18T00:13:37.314Z,1019.19
2022-12-18T00:18:37.314Z,1019.32
2022-12-18T00:23:37.289Z,1019.29
2022-12-18T00:28:36.790Z,1019.30
2022-12-18T00:33:37.166Z,1019.31
2022-12-18T00:38:36.967Z,1019.37
2022-12-18T00:43:36.967Z,1019.56
2022-12-18T00:48:36.503Z,1019.56
2022-12-18T00:53:36.818Z,1019.58
2022-12-18T00:58:36.392Z,1019.53
2022-12-18T01:03:36.663Z,1019.51
2022-12-18T01:08:36.248Z,1019.52
2022-12-18T01:13:36.517Z,1019.64
2022-12-18T01:18:36.106Z,1019.50
2022-12-18T01:23:36.341Z,1019.63
2022-12-18T01:28:35.999Z,1019.78
2022-12-18T01:33:36.240Z,1019.67
2022-12-18T01:38:35.906Z,1019.89
2022-12-18T01:43:36.341Z,1019.84
2022-12-18T01:48:35.747Z,1019.73
2022-12-18T01:53:35.982Z,1019.82
2022-12-18T01:58:35.618Z,1019.74
2022-12-18T02:03:35.918Z,1019.74
2022-12-18T02:08:35.493Z,1019.84
2022-12-18T02:13:35.751Z,1019.92
2022-12-18T02:18:35.417Z,1019.90
2022-12-18T02:23:35.480Z,1019.80
2022-12-18T02:28:35.291Z,1019.80
2022-12-18T02:33:35.272Z,1019.99
2022-12-18T02:38:35.128Z,1020.01
2022-12-18T02:43:35.250Z,1019.97
2022-12-18T02:48:34.985Z,1020.04
2022-12-18T02:53:34.944Z,1019.88
2022-12-18T02:58:34.959Z,1019.98
2022-12-18T03:03:34.960Z,1020.02
2022-12-18T03:08:34.775Z,1020.01
2022-12-18T03:13:34.697Z,1020.02
2022-12-18T03:18:34.676Z,1019.97
2022-12-18T03:23:34.637Z,1020.05
2022-12-18T03:28:34.543Z,1020.15
2022-12-18T03:33:34.512Z,1020.03
2022-12-18T03:38:34.410Z,1020.06
2022-12-18T03:43:34.370Z,1020.10
2022-12-18T03:48:34.412Z,1020.09
2022-12-18T03:53:34.192Z,1020.23
2022-12-18T03:58:34.220Z,1020.20
2022-12-18T04:03:34.176Z,1020.28
2022-12-18T04:08:34.017Z,1020.15
2022-12-18T04:13:33.997Z,1020.23
2022-12-18T04:18:34.037Z,1020.44
2022-12-18T04:23:33.932Z,1020.39
2022-12-18T04:28:33.765Z,1020.37
2022-12-18T04:33:33.703Z,1020.37
2022-12-18T04:38:34.491Z,1020.39
2022-12-18T04:43:33.634Z,1020.53
2022-12-18T04:48:33.505Z,1020.54
2022-12-18T04:53:33.583Z,1020.59
2022-12-18T04:58:33.389Z,1020.52
2022-12-18T05:03:33.322Z,1020.52
2022-12-18T05:08:33.310Z,1020.47
2022-12-18T05:13:33.248Z,1020.49
2022-12-18T05:18:33.155Z,1020.51
2022-12-18T05:23:33.128Z,1020.50
2022-12-18T05:28:33.045Z,1020.43
2022-12-18T05:33:32.912Z,1020.59
2022-12-18T05:38:32.921Z,1020.49
2022-12-18T05:43:32.794Z,1020.53
2022-12-18T05:48:32.800Z,1020.65
2022-12-18T05:53:32.704Z,1020.47
2022-12-18T05:58:32.607Z,1020.59
2022-12-18T06:03:34.113Z,1020.64
2022-12-18T06:08:32.555Z,1020.69
2022-12-18T06:13:32.446Z,1020.70
2022-12-18T06:18:32.470Z,1020.66
2022-12-18T06:23:32.272Z,1020.78
2022-12-18T06:28:32.256Z,1020.88
2022-12-18T06:33:32.283Z,1020.74
2022-12-18T06:38:32.069Z,1020.90
2022-12-18T06:43:32.042Z,1020.89
2022-12-18T06:48:31.952Z,1020.83
2022-12-18T06:53:31.898Z,1020.94
2022-12-18T06:58:31.883Z,1021.00
2022-12-18T07:03:31.730Z,1021.08
2022-12-18T07:08:31.727Z,1021.08
2022-12-18T07:13:31.680Z,1021.29
2022-12-18T07:18:31.600Z,1021.26
2022-12-18T07:23:31.545Z,1021.18
2022-12-18T07:28:31.651Z,1021.19
2022-12-18T07:33:31.408Z,1021.06
2022-12-18T07:38:31.268Z,1021.33
2022-12-18T07:43:31.266Z,1021.40
2022-12-18T07:48:31.225Z,1021.40
2022-12-18T07:53:31.107Z,1021.44
2022-12-18T07:58:31.041Z,1021.43
2022-12-18T08:03:30.989Z,1021.28
2022-12-18T08:08:30.941Z,1021.21
2022-12-18T08:13:30.918Z,1021.22
2022-12-18T08:18:30.848Z,1021.20
2022-12-18T08:23:30.862Z,1021.18
2022-12-18T08:28:30.661Z,1021.23
2022-12-18T08:33:30.954Z,1021.27
2022-12-18T08:38:31.336Z,1021.23
2022-12-18T08:43:32.360Z,1021.15
2022-12-18T08:48:30.445Z,1021.27
2022-12-18T08:53:34.177Z,1021.19
2022-12-18T08:58:31.335Z,1021.28
2022-12-18T09:03:30.229Z,1021.34
2022-12-18T09:08:30.132Z,1021.21
2022-12-18T09:13:30.184Z,1021.14
2022-12-18T09:18:30.108Z,1021.39
2022-12-18T09:23:30.070Z,1021.47
2022-12-18T09:28:30.019Z,1021.60
2022-12-18T09:33:29.831Z,1021.52
2022-12-18T09:38:29.766Z,1021.56
2022-12-18T09:43:29.717Z,1021.45
2022-12-18T09:48:29.618Z,1021.39
2022-12-18T09:53:29.682Z,1021.40
2022-12-18T09:58:29.519Z,1021.35
2022-12-18T10:03:29.463Z,1021.26
2022-12-18T10:08:29.356Z,1021.21
2022-12-18T10:13:29.294Z,1021.01
2022-12-18T10:18:29.290Z,1020.94
2022-12-18T10:23:29.210Z,1020.88
2022-12-18T10:28:29.134Z,1020.79
2022-12-18T10:33:29.171Z,1020.69
2022-12-18T10:38:29.001Z,1020.55
2022-12-18T10:43:28.902Z,1020.51
2022-12-18T10:48:28.893Z,1020.39
2022-12-18T10:53:28.779Z,1020.37
2022-12-18T10:58:28.747Z,1020.59
2022-12-18T11:03:28.679Z,1020.58
2022-12-18T11:08:28.632Z,1020.49
2022-12-18T11:13:28.543Z,1020.35
2022-12-18T11:18:28.468Z,1020.24
2022-12-18T11:23:28.444Z,1020.16
2022-12-18T11:28:28.330Z,1020.10
2022-12-18T11:33:28.277Z,1020.22
2022-12-18T11:38:28.230Z,1020.17
2022-12-18T11:43:28.159Z,1020.16
2022-12-18T11:48:28.110Z,1020.12
2022-12-18T11:53:28.058Z,1020.31
2022-12-18T11:58:31.696Z,1020.37
2022-12-18T12:03:27.955Z,1020.25
2022-12-18T12:08:27.852Z,1020.14
2022-12-18T12:13:27.756Z,1020.34
2022-12-18T12:18:27.727Z,1020.25
2022-12-18T12:23:39.619Z,1020.50
2022-12-18T12:28:28.608Z,1020.43
2022-12-18T12:33:27.499Z,1020.49
2022-12-18T12:38:27.440Z,1020.64
2022-12-18T12:43:27.380Z,1020.71
2022-12-18T12:48:27.362Z,1020.69
2022-12-18T12:53:27.406Z,1020.46
2022-12-18T12:58:27.579Z,1020.53
2022-12-18T13:03:27.127Z,1020.48
2022-12-18T13:08:27.431Z,1020.40
2022-12-18T13:13:27.052Z,1020.32
2022-12-18T13:18:26.969Z,1020.33
2022-12-18T13:23:26.887Z,1020.34
2022-12-18T13:28:26.841Z,1020.30
2022-12-18T13:33:26.755Z,1020.33
2022-12-18T13:38:26.689Z,1020.24
2022-12-18T13:43:26.627Z,1020.35
2022-12-18T13:48:26.546Z,1020.33
2022-12-18T13:53:26.476Z,1020.38
2022-12-18T13:58:26.449Z,1020.05
2022-12-18T14:03:26.440Z,1020.36
2022-12-18T14:08:26.280Z,1020.33
2022-12-18T14:13:26.246Z,1020.48
2022-12-18T14:18:26.205Z,1020.50
2022-12-18T14:23:26.087Z,1020.43
2022-12-18T14:28:26.058Z,1020.22
2022-12-18T14:33:25.995Z,1020.27
2022-12-18T14:38:25.898Z,1020.03
2022-12-18T14:43:25.907Z,1020.06
2022-12-18T14:48:25.848Z,1020.05
2022-12-18T14:53:25.875Z,1020.17
2022-12-18T14:58:27.244Z,1020.27
2022-12-18T15:03:25.884Z,1020.21
2022-12-18T15:08:25.572Z,1020.29
2022-12-18T15:13:25.670Z,1020.19
2022-12-18T15:18:25.556Z,1020.21
2022-12-18T15:23:25.334Z,1020.17
2022-12-18T15:28:25.329Z,1020.09
2022-12-18T15:33:25.225Z,1020.09
2022-12-18T15:38:25.227Z,1019.86
2022-12-18T15:43:25.249Z,1019.98
2022-12-18T15:48:25.027Z,1020.03
2022-12-18T15:53:25.007Z,1020.03
2022-12-18T15:58:24.936Z,1019.99
2022-12-18T16:03:24.845Z,1020.07
2022-12-18T16:08:24.798Z,1019.90
2022-12-18T16:13:24.927Z,1019.78
2022-12-18T16:18:24.649Z,1019.75
2022-12-18T16:23:24.674Z,1019.82
2022-12-18T16:28:24.500Z,1019.76
2022-12-18T16:33:24.524Z,1019.66
2022-12-18T16:38:24.394Z,1019.80
2022-12-18T16:43:24.383Z,1019.74
2022-12-18T16:48:24.254Z,1019.57
2022-12-18T16:53:24.185Z,1019.64
2022-12-18T16:58:24.194Z,1019.74
2022-12-18T17:03:24.136Z,1019.73
2022-12-18T17:08:24.110Z,1019.66
2022-12-18T17:13:25.930Z,1019.57
2022-12-18T17:18:23.911Z,1019.52
2022-12-18T17:23:23.871Z,1019.47
2022-12-18T17:28:23.739Z,1019.56
2022-12-18T17:33:23.698Z,1019.44
2022-12-18T17:38:23.614Z,1019.38
2022-12-18T17:43:23.581Z,1019.33
2022-12-18T17:48:23.536Z,1019.28
2022-12-18T17:53:23.472Z,1019.17
2022-12-18T17:58:23.616Z,1019.20
2022-12-18T18:03:23.467Z,1019.22
2022-12-18T18:08:23.343Z,1019.07
2022-12-18T18:13:23.198Z,1019.17
2022-12-18T18:18:23.227Z,1019.13
2022-12-18T18:23:23.083Z,1019.17
2022-12-18T18:28:23.063Z,1019.10
2022-12-18T18:33:23.045Z,1019.07
2022-12-18T18:38:22.998Z,1018.96
2022-12-18T18:43:22.856Z,1018.86
2022-12-18T18:48:22.834Z,1018.81
2022-12-18T18:53:23.062Z,1018.62
2022-12-18T18:58:22.657Z,1018.57
2022-12-18T19:03:22.705Z,1018.71
2022-12-18T19:08:22.558Z,1018.48
2022-12-18T19:13:22.494Z,1018.37
2022-12-18T19:18:22.390Z,1018.39
2022-12-18T19:23:22.418Z,1018.32
2022-12-18T19:28:22.601Z,1018.18
2022-12-18T19:33:51.173Z,1018.21
2022-12-18T19:38:23.181Z,1018.15
2022-12-18T19:43:22.078Z,1018.00
2022-12-18T19:48:21.995Z,1017.83
2022-12-18T19:53:21.974Z,1017.92
2022-12-18T19:58:21.874Z,1017.84
2022-12-18T20:03:30.379Z,1017.82
2022-12-18T20:08:22.771Z,1017.70
2022-12-18T20:13:21.722Z,1017.73
2022-12-18T20:18:21.646Z,1017.72
2022-12-18T20:23:21.585Z,1017.70
2022-12-18T20:28:21.572Z,1017.79
2022-12-18T20:33:21.534Z,1017.90
2022-12-18T20:38:21.406Z,1017.70
2022-12-18T20:43:21.300Z,1017.78
2022-12-18T20:48:26.474Z,1017.60
2022-12-18T20:53:22.184Z,1017.52
2022-12-18T20:58:21.137Z,1017.37
2022-12-18T21:03:21.195Z,1017.20
2022-12-18T21:08:21.026Z,1017.63
2022-12-18T21:13:21.298Z,1017.51
2022-12-18T21:18:21.173Z,1017.50
2022-12-18T21:23:20.829Z,1017.54
2022-12-18T21:28:20.741Z,1017.39
2022-12-18T21:33:20.649Z,1017.47
2022-12-18T21:38:20.563Z,1017.49
2022-12-18T21:43:20.537Z,1017.64
2022-12-18T21:48:20.453Z,1017.35
2022-12-18T21:53:20.400Z,1017.40
2022-12-18T21:58:20.536Z,1017.44
2022-12-18T22:03:20.388Z,1017.41
2022-12-18T22:08:20.208Z,1017.13
2022-12-18T22:13:20.234Z,1017.19
2022-12-18T22:18:20.142Z,1017.29
2022-12-18T22:23:20.065Z,1017.36
2022-12-18T22:28:19.988Z,1017.35
2022-12-18T22:33:19.932Z,1017.17
2022-12-18T22:38:19.833Z,1017.24
2022-12-18T22:43:19.991Z,1017.16
2022-12-18T22:48:19.706Z,1017.01
2022-12-18T22:53:19.737Z,1017.04
2022-12-18T22:58:19.691Z,1016.91
2022-12-18T23:03:19.553Z,1016.82
2022-12-18T23:08:19.459Z,1016.75
2022-12-18T23:13:19.382Z,1016.60
2022-12-18T23:18:19.295Z,1016.66
2022-12-18T23:23:19.265Z,1016.42
2022-12-18T23:28:19.162Z,1016.34
2022-12-18T23:33:19.152Z,1016.33
2022-12-18T23:38:19.145Z,1016.21
2022-12-18T23:43:19.081Z,1016.10
2022-12-18T23:48:18.923Z,1015.87
2022-12-18T23:53:18.877Z,1015.74
2022-12-18T23:58:18.864Z,1015.63
